Decoded Metar for KARG (WALNUT RIDGE in AR, USA) (IATA:ARG) | Meteo·Mobile Aviation Weather
aviador You're here:

KARG Decoded Metar

WALNUT RIDGE in AR, USA
Report Time2019-01-17 00:56:00
UTC Time2019-01-17 01:18:00
Flight Rules mvfr MVFR
Wind140° at 05 kt
W.Decomp.*RWY 13: 4.9 kt HW 0.8 kt RCW
RWY 18: 3.8 kt HW 3.3 kt LCW
RWY 22: 0.8 kt HW 4.9 kt LCW
W.Rank140° ranks 24
Current wind is below 140° avg. (6.2)
Visibility9999 m
Phenomena:N/A
Clouds:Overcast 026 Hf
Expected CloudBase > 800 ft AGL from Temp-Dew spread
Ceiling2,600 ft
Temp06°C (ISA -8)
Dew Point04°C (87% RH)
AAT2.9°C
QNH1022 hPa
Density Alt-942 ft
Elevation272 ft
Report Wrong Elevation
Raw Report
KARG 170056Z AUTO 14005KT 10SM OVC026 06/04 A3018 RMK AO2 SLP225
T00610044=

Extra information for KARG:More info

Metar Taf Metar & Taf Last 4 Metars F.Rules Stats Wind Profile Meteogram Temp Stats Airport Information Weather charts Add Link Nearby VenuesMetar ALERT Operation Metar Decoded Social comments

AIRNAV info for KARG